KMYV/MYV METAR and TAF weather

Enter ICAO airport designator
Station Type Date Time Source
KMYV METAR 2019/02/16 03:53 UTC NOAA

KMYV 160353Z AUTO 15009KT 10SM FEW080 07/04 A3002 RMK AO2 SLP169 T00720039


Station Type Date Time Source
KMYV Decoded METAR 2019/02/16 03:53 UTC NOAA

MARYSVILLE YUBA COUNTY, CA, United States (KMYV) 39-06N 121-34W 21M
Feb 15, 2019 - 10:53 PM EST / 2019.02.16 0353 UTC
Wind: from the SSE (150 degrees) at 10 MPH (9 KT):0
Visibility: 10 mile(s):0
Sky conditions: mostly clear
Temperature: 45.0 F (7.2 C)
Dew Point: 39.0 F (3.9 C)
Relative Humidity: 79%
Pressure (altimeter): 30.02 in. Hg (1016 hPa)
ob: KMYV 160353Z AUTO 15009KT 10SM FEW080 07/04 A3002 RMK AO2 SLP169 T00720039
cycle: 4

Station Type Date Time Source
KMYV TAF UTC NOAA

Error!


Example: see airport list